Time;durP1;ratioP1;P1;durP2;ratioP2;P2;SDS_P1;SDS_P2;PMS_P1;PMS_P2;Temp;Humidity;BMP_temperature;BMP_pressure;BME280_temperature;BME280_humidity;BME280_pressure;Samples;Min_cycle;Max_cycle;Signal;HPM_P1;HPM_P2
2024/02/02 00:00:44;;;;;;;11.73;3.47;;;16.30;99.90;;;;;;5060840;28;20581;-63
2024/02/02 00:03:11;;;;;;;13.48;3.33;;;16.20;99.90;;;;;;5062032;28;20093;-66
2024/02/02 00:05:37;;;;;;;9.07;3.10;;;16.20;99.90;;;;;;5060284;28;20501;-64
2024/02/02 00:08:04;;;;;;;22.58;3.53;;;16.20;99.90;;;;;;5060658;28;20100;-64
2024/02/02 00:10:31;;;;;;;10.77;3.38;;;16.20;99.90;;;;;;5059976;28;20108;-65
2024/02/02 00:12:57;;;;;;;9.55;3.30;;;16.10;99.90;;;;;;5058954;28;20105;-64
2024/02/02 00:15:24;;;;;;;18.38;3.70;;;16.10;99.90;;;;;;5062837;28;20084;-65
2024/02/02 00:17:50;;;;;;;10.98;3.47;;;16.00;99.90;;;;;;5058106;28;20069;-62
2024/02/02 00:20:17;;;;;;;11.25;4.05;;;16.00;99.90;;;;;;5058358;28;20087;-62
2024/02/02 00:22:43;;;;;;;12.70;4.32;;;15.90;99.90;;;;;;5063148;28;20081;-63
2024/02/02 00:25:10;;;;;;;14.48;7.18;;;15.80;99.90;;;;;;5059941;28;20096;-62
2024/02/02 00:27:36;;;;;;;23.10;6.63;;;15.60;99.90;;;;;;5061999;28;20077;-60
2024/02/02 00:30:03;;;;;;;17.05;5.13;;;15.60;99.90;;;;;;5061418;28;20077;-60
2024/02/02 00:32:30;;;;;;;20.55;4.18;;;15.40;99.90;;;;;;5058296;28;20543;-59
2024/02/02 00:34:56;;;;;;;18.13;4.55;;;15.40;99.90;;;;;;5062237;28;20444;-63
2024/02/02 00:37:23;;;;;;;15.95;4.55;;;15.20;99.90;;;;;;5059958;28;20151;-59
2024/02/02 00:39:49;;;;;;;14.10;3.45;;;15.00;99.90;;;;;;5061825;28;20628;-58
2024/02/02 00:42:16;;;;;;;11.15;3.50;;;14.80;99.90;;;;;;5061081;28;20065;-57
2024/02/02 00:44:42;;;;;;;14.30;3.33;;;14.70;99.90;;;;;;5062023;28;20242;-62
2024/02/02 00:47:09;;;;;;;10.85;3.50;;;14.50;99.90;;;;;;5059921;28;20109;-60
2024/02/02 00:49:35;;;;;;;11.15;2.80;;;14.40;99.90;;;;;;5060297;28;20211;-59
2024/02/02 00:52:02;;;;;;;8.30;3.40;;;14.20;99.90;;;;;;5063062;28;20497;-59
2024/02/02 00:54:28;;;;;;;7.25;3.03;;;14.20;99.90;;;;;;5068105;28;20083;-61
2024/02/02 00:56:55;;;;;;;7.60;3.80;;;14.10;99.90;;;;;;5062340;28;20556;-60
2024/02/02 00:59:21;;;;;;;7.85;3.42;;;14.10;99.90;;;;;;5069500;28;20085;-62
2024/02/02 01:01:48;;;;;;;7.75;3.05;;;14.00;99.90;;;;;;5062813;28;20540;-59
2024/02/02 01:04:15;;;;;;;5.28;2.92;;;14.00;99.90;;;;;;5067422;28;20069;-60
2024/02/02 01:06:41;;;;;;;6.82;1.98;;;14.00;99.90;;;;;;5064134;28;20501;-59
2024/02/02 01:09:10;;;;;;;12.13;2.67;;;13.90;99.90;;;;;;5063247;28;20139;-61
2024/02/02 01:11:37;;;;;;;8.85;3.00;;;13.80;99.90;;;;;;5061419;28;20081;-60
2024/02/02 01:14:03;;;;;;;10.10;2.30;;;13.80;99.90;;;;;;5064739;28;20077;-63
2024/02/02 01:16:29;;;;;;;6.82;1.85;;;13.80;99.90;;;;;;5062415;28;20081;-66
2024/02/02 01:18:56;;;;;;;6.15;1.80;;;13.80;99.90;;;;;;5064516;28;20084;-62
2024/02/02 01:21:23;;;;;;;5.63;2.05;;;13.70;99.90;;;;;;5066282;28;20077;-59
2024/02/02 01:23:49;;;;;;;6.18;1.95;;;13.70;99.90;;;;;;5065692;28;20164;-62
2024/02/02 01:26:16;;;;;;;8.05;2.63;;;13.80;99.90;;;;;;5065985;28;20207;-63
2024/02/02 01:28:42;;;;;;;4.93;1.73;;;13.80;99.90;;;;;;5060967;28;20532;-60
2024/02/02 01:31:10;;;;;;;3.35;1.60;;;13.80;99.90;;;;;;5065558;28;20194;-59
2024/02/02 01:33:36;;;;;;;7.20;1.77;;;13.80;99.90;;;;;;5065322;28;20085;-60
2024/02/02 01:36:03;;;;;;;5.82;1.80;;;13.90;99.90;;;;;;5064328;28;20122;-60
2024/02/02 01:38:29;;;;;;;8.45;2.03;;;13.90;99.90;;;;;;5060319;28;20084;-61
2024/02/02 01:40:56;;;;;;;5.20;2.22;;;13.90;99.90;;;;;;5064669;28;20208;-66
2024/02/02 01:43:23;;;;;;;4.63;2.30;;;13.90;99.90;;;;;;5061636;28;20112;-62
2024/02/02 01:45:51;;;;;;;4.70;2.17;;;13.90;99.90;;;;;;5065777;28;20101;-60
2024/02/02 01:48:17;;;;;;;8.55;2.30;;;13.80;99.90;;;;;;5063052;28;20144;-60
2024/02/02 01:50:44;;;;;;;16.67;3.53;;;13.70;99.90;;;;;;5059999;28;20073;-62
2024/02/02 01:53:11;;;;;;;18.05;4.70;;;13.80;99.90;;;;;;5066070;28;20081;-63
2024/02/02 01:55:38;;;;;;;18.48;4.47;;;13.80;99.90;;;;;;5065013;28;20156;-62
2024/02/02 01:58:04;;;;;;;10.70;3.60;;;13.80;99.90;;;;;;5063290;28;20111;-60
2024/02/02 02:00:31;;;;;;;15.20;4.13;;;13.80;99.90;;;;;;5058815;28;20074;-61
2024/02/02 02:02:57;;;;;;;10.38;4.05;;;13.80;99.90;;;;;;5068356;28;20525;-60
2024/02/02 02:05:24;;;;;;;10.88;3.40;;;13.80;99.90;;;;;;5065562;28;20101;-60
2024/02/02 02:07:50;;;;;;;10.60;3.60;;;13.80;99.90;;;;;;5063975;28;20546;-62
2024/02/02 02:10:17;;;;;;;12.10;3.67;;;13.70;99.90;;;;;;5065645;28;20077;-60
2024/02/02 02:12:44;;;;;;;9.30;4.80;;;13.70;99.90;;;;;;5060389;28;20073;-62
2024/02/02 02:15:11;;;;;;;12.48;5.70;;;13.70;99.90;;;;;;5063185;28;20771;-62
2024/02/02 02:17:38;;;;;;;18.80;6.20;;;13.70;99.90;;;;;;5068804;28;20084;-61
2024/02/02 02:20:11;;;;;;;15.20;5.55;;;13.70;99.90;;;;;;5077403;28;20104;-62
2024/02/02 02:22:37;;;;;;;13.02;6.28;;;13.70;99.90;;;;;;5064960;28;20069;-58
2024/02/02 02:25:04;;;;;;;20.20;6.72;;;13.70;99.90;;;;;;5062352;28;20118;-60
2024/02/02 02:27:32;;;;;;;13.80;6.03;;;13.70;99.90;;;;;;5062940;28;20080;-59
2024/02/02 02:29:59;;;;;;;14.10;8.00;;;13.70;99.90;;;;;;5062938;28;20069;-60
2024/02/02 02:32:26;;;;;;;11.27;6.95;;;13.70;99.90;;;;;;5062328;28;20077;-60
2024/02/02 02:34:53;;;;;;;7.78;3.90;;;13.60;99.90;;;;;;5061626;28;20207;-61
2024/02/02 02:37:20;;;;;;;10.93;3.67;;;13.60;99.90;;;;;;5061746;28;20112;-61
2024/02/02 02:39:46;;;;;;;8.52;4.88;;;13.60;99.90;;;;;;5059338;28;20077;-60
2024/02/02 02:42:13;;;;;;;17.35;7.28;;;13.50;99.90;;;;;;5062261;28;20073;-61
2024/02/02 02:44:39;;;;;;;13.07;5.60;;;13.50;99.90;;;;;;5063311;28;20113;-60
2024/02/02 02:47:06;;;;;;;12.82;5.53;;;13.40;99.90;;;;;;5061445;28;20881;-62
2024/02/02 02:49:32;;;;;;;13.50;6.18;;;13.30;99.90;;;;;;5062652;28;20077;-61
2024/02/02 02:51:59;;;;;;;10.35;5.13;;;13.30;99.90;;;;;;5063849;28;20105;-65
2024/02/02 02:54:25;;;;;;;17.15;6.68;;;13.20;99.90;;;;;;5060669;28;20066;-59
2024/02/02 02:56:51;;;;;;;14.48;6.13;;;13.20;99.90;;;;;;5063492;28;20122;-60
2024/02/02 02:59:18;;;;;;;12.57;6.95;;;13.10;99.90;;;;;;5062985;28;20112;-62
2024/02/02 03:01:45;;;;;;;14.13;7.00;;;13.10;99.90;;;;;;5061236;28;20268;-60
2024/02/02 03:04:11;;;;;;;23.85;18.70;;;13.00;99.90;;;;;;5062517;28;20076;-59
2024/02/02 03:06:38;;;;;;;14.70;10.15;;;13.00;99.90;;;;;;5063153;28;20113;-61
2024/02/02 03:09:04;;;;;;;14.50;9.50;;;12.90;99.90;;;;;;5059930;28;20081;-61
2024/02/02 03:11:31;;;;;;;13.35;8.77;;;12.90;99.90;;;;;;5060560;28;20077;-63
2024/02/02 03:13:58;;;;;;;18.15;8.50;;;12.80;99.90;;;;;;5062716;28;20122;-60
2024/02/02 03:16:24;;;;;;;15.75;8.63;;;12.80;99.90;;;;;;5060607;28;20697;-60
2024/02/02 03:18:50;;;;;;;16.65;7.43;;;12.80;99.90;;;;;;5062142;28;20083;-59
2024/02/02 03:21:17;;;;;;;16.52;7.47;;;12.80;99.90;;;;;;5062077;28;20513;-61
2024/02/02 03:23:44;;;;;;;15.52;7.65;;;12.70;99.90;;;;;;5064375;28;20085;-62
2024/02/02 03:26:11;;;;;;;15.40;6.13;;;12.70;99.90;;;;;;5063648;28;20140;-64
2024/02/02 03:28:37;;;;;;;9.68;5.00;;;12.70;99.90;;;;;;5061522;28;20077;-60
2024/02/02 03:31:04;;;;;;;9.70;5.32;;;12.70;99.90;;;;;;5062126;28;20085;-61
2024/02/02 03:33:30;;;;;;;12.18;5.63;;;12.60;99.90;;;;;;5060762;28;20382;-61
2024/02/02 03:35:57;;;;;;;11.88;6.00;;;12.60;99.90;;;;;;5062282;28;20081;-68
2024/02/02 03:38:24;;;;;;;10.13;5.32;;;12.60;99.90;;;;;;5066937;28;20569;-65
2024/02/02 03:40:51;;;;;;;13.75;6.22;;;12.50;99.90;;;;;;5061944;28;20084;-62
2024/02/02 03:43:17;;;;;;;15.10;8.13;;;12.60;99.90;;;;;;5060281;28;20088;-62
2024/02/02 03:45:44;;;;;;;12.07;6.05;;;12.50;99.90;;;;;;5062110;28;20193;-67
2024/02/02 03:48:10;;;;;;;16.45;7.53;;;12.50;99.90;;;;;;5058186;28;20111;-66
2024/02/02 03:50:37;;;;;;;13.52;5.90;;;12.40;99.90;;;;;;5063394;28;20139;-63
2024/02/02 03:53:03;;;;;;;9.85;5.65;;;12.40;99.90;;;;;;5062774;28;20072;-62
2024/02/02 03:55:30;;;;;;;10.52;5.90;;;12.40;99.90;;;;;;5060530;28;20077;-62
2024/02/02 03:57:56;;;;;;;15.02;7.55;;;12.40;99.90;;;;;;5063391;28;20437;-62
2024/02/02 04:00:23;;;;;;;14.55;7.03;;;12.50;99.90;;;;;;5057873;28;20589;-66
2024/02/02 04:02:52;;;;;;;8.98;6.05;;;12.40;99.90;;;;;;5063486;28;20077;-60
2024/02/02 04:05:19;;;;;;;13.18;7.00;;;12.40;99.90;;;;;;5060786;28;20207;-61
2024/02/02 04:07:45;;;;;;;14.68;6.35;;;12.40;99.90;;;;;;5059680;28;20081;-61
2024/02/02 04:10:13;;;;;;;20.50;8.65;;;12.40;99.90;;;;;;5059603;28;20483;-70
2024/02/02 04:12:40;;;;;;;14.45;8.85;;;12.40;99.90;;;;;;5061846;28;20081;-62
2024/02/02 04:15:07;;;;;;;16.00;7.90;;;12.30;99.90;;;;;;5063193;28;20514;-62
2024/02/02 04:17:33;;;;;;;14.55;9.15;;;12.30;99.90;;;;;;5059485;28;20459;-64
2024/02/02 04:20:00;;;;;;;17.30;8.57;;;12.30;99.90;;;;;;5063466;28;20496;-62
2024/02/02 04:22:26;;;;;;;12.60;7.43;;;12.30;99.90;;;;;;5060226;28;20119;-62
2024/02/02 04:24:53;;;;;;;17.80;8.50;;;12.30;99.90;;;;;;5062048;28;20160;-69
2024/02/02 04:27:19;;;;;;;16.98;6.88;;;12.30;99.90;;;;;;5062880;28;20147;-62
2024/02/02 04:29:45;;;;;;;13.30;6.38;;;12.30;99.90;;;;;;5064336;28;20089;-61
2024/02/02 04:32:12;;;;;;;8.80;6.10;;;12.30;99.90;;;;;;5064037;28;20073;-61
2024/02/02 04:34:38;;;;;;;12.32;7.65;;;12.20;99.90;;;;;;5063978;28;20211;-70
2024/02/02 04:37:05;;;;;;;20.85;13.05;;;12.20;99.90;;;;;;5064328;28;20069;-65
2024/02/02 04:39:31;;;;;;;12.70;10.10;;;12.20;99.90;;;;;;5064230;28;20085;-61
2024/02/02 04:41:58;;;;;;;13.05;8.13;;;12.20;99.90;;;;;;5064763;28;20092;-62
2024/02/02 04:44:24;;;;;;;11.40;6.40;;;12.20;99.90;;;;;;5065277;28;20112;-62
2024/02/02 04:46:51;;;;;;;14.57;7.30;;;12.20;99.90;;;;;;5067508;28;20146;-69
2024/02/02 04:49:17;;;;;;;14.50;9.05;;;12.10;99.90;;;;;;5062775;28;20104;-63
2024/02/02 04:51:44;;;;;;;10.40;7.95;;;12.10;99.90;;;;;;5067464;28;20112;-61
2024/02/02 04:54:10;;;;;;;15.75;8.50;;;12.10;99.90;;;;;;5063866;28;20073;-62
2024/02/02 04:56:37;;;;;;;18.10;9.65;;;12.10;99.90;;;;;;5063010;28;20080;-61
2024/02/02 04:59:03;;;;;;;15.02;10.15;;;12.00;99.90;;;;;;5063956;28;20638;-69
2024/02/02 05:01:30;;;;;;;18.55;11.60;;;12.00;99.90;;;;;;5063898;28;20073;-65
2024/02/02 05:03:56;;;;;;;20.02;11.63;;;12.00;99.90;;;;;;5067314;28;20130;-68
2024/02/02 05:06:22;;;;;;;20.23;12.38;;;11.90;99.90;;;;;;5063007;28;20509;-61
2024/02/02 05:08:49;;;;;;;20.67;14.02;;;12.00;99.90;;;;;;5063940;28;20466;-61
2024/02/02 05:11:15;;;;;;;26.25;15.70;;;12.00;99.90;;;;;;5065120;28;20112;-66
2024/02/02 05:13:42;;;;;;;24.17;15.70;;;12.00;99.90;;;;;;5066541;28;20548;-62
2024/02/02 05:16:08;;;;;;;24.52;17.25;;;11.90;99.90;;;;;;5063708;28;20184;-62
2024/02/02 05:18:35;;;;;;;20.42;12.32;;;11.80;99.90;;;;;;5064747;28;20069;-69
2024/02/02 05:21:01;;;;;;;16.33;12.00;;;11.80;99.90;;;;;;5064774;28;20083;-62
2024/02/02 05:23:28;;;;;;;9.13;4.93;;;11.80;99.90;;;;;;5063141;28;20146;-61
2024/02/02 05:25:55;;;;;;;11.10;6.53;;;11.90;99.90;;;;;;5061343;28;20417;-64
2024/02/02 05:28:21;;;;;;;13.60;7.68;;;12.00;99.90;;;;;;5060968;28;20076;-61
2024/02/02 05:30:47;;;;;;;19.15;9.10;;;12.00;99.90;;;;;;5065308;28;20077;-63
2024/02/02 05:33:14;;;;;;;14.10;9.70;;;12.00;99.90;;;;;;5066596;28;20072;-62
2024/02/02 05:35:41;;;;;;;18.58;10.13;;;11.90;99.90;;;;;;5064444;28;20070;-67
2024/02/02 05:38:07;;;;;;;21.80;8.90;;;11.90;99.90;;;;;;5064978;28;20447;-61
2024/02/02 05:40:34;;;;;;;9.38;6.05;;;11.90;99.90;;;;;;5063304;28;20160;-60
2024/02/02 05:43:00;;;;;;;13.55;7.53;;;11.80;99.90;;;;;;5064122;28;20105;-62
2024/02/02 05:45:27;;;;;;;20.00;7.22;;;11.80;99.90;;;;;;5062186;28;20117;-61
2024/02/02 05:47:53;;;;;;;12.88;7.32;;;11.70;99.90;;;;;;5064283;28;20190;-64
2024/02/02 05:50:20;;;;;;;9.95;6.38;;;11.80;99.90;;;;;;5058024;28;20659;-62
2024/02/02 05:52:46;;;;;;;7.97;5.63;;;11.80;99.90;;;;;;5063278;28;20081;-62
2024/02/02 05:55:13;;;;;;;14.10;6.65;;;11.70;99.90;;;;;;5061274;28;20081;-72
2024/02/02 05:57:39;;;;;;;9.05;6.60;;;11.70;99.90;;;;;;5063488;28;20085;-68
2024/02/02 06:00:07;;;;;;;9.55;6.75;;;11.70;99.90;;;;;;5061966;28;20632;-60
2024/02/02 06:02:34;;;;;;;11.88;6.68;;;11.60;99.90;;;;;;5066221;28;20076;-62
2024/02/02 06:05:01;;;;;;;10.82;6.70;;;11.50;99.90;;;;;;5062506;28;20175;-63
2024/02/02 06:07:28;;;;;;;9.15;6.22;;;11.50;99.90;;;;;;5065323;28;20412;-61
2024/02/02 06:09:54;;;;;;;10.40;5.97;;;11.60;99.90;;;;;;5061980;28;20084;-60
2024/02/02 06:12:21;;;;;;;7.88;5.50;;;11.40;99.90;;;;;;5063424;28;20452;-62
2024/02/02 06:14:47;;;;;;;11.77;4.45;;;11.40;99.90;;;;;;5067913;28;20444;-66
2024/02/02 06:17:14;;;;;;;4.65;3.05;;;11.40;99.90;;;;;;5062750;28;20491;-64
2024/02/02 06:19:40;;;;;;;6.15;2.20;;;11.60;99.90;;;;;;5062627;28;20131;-61
2024/02/02 06:22:07;;;;;;;7.10;2.15;;;11.80;99.90;;;;;;5064938;28;20152;-66
2024/02/02 06:24:33;;;;;;;2.55;1.80;;;11.80;99.90;;;;;;5065667;28;20214;-61
2024/02/02 06:26:59;;;;;;;3.40;2.00;;;11.90;99.90;;;;;;5065249;28;20197;-62
2024/02/02 06:29:26;;;;;;;3.15;1.75;;;11.80;99.90;;;;;;5064497;28;20110;-66
2024/02/02 06:31:52;;;;;;;4.18;1.92;;;11.80;99.90;;;;;;5064025;28;20417;-66
2024/02/02 06:34:19;;;;;;;5.15;2.30;;;11.90;99.90;;;;;;5058274;28;20083;-66
2024/02/02 06:36:45;;;;;;;5.80;2.70;;;12.00;99.90;;;;;;5068177;28;20085;-65
2024/02/02 06:39:12;;;;;;;3.00;2.35;;;12.00;99.90;;;;;;5060016;28;20076;-62
2024/02/02 06:41:39;;;;;;;6.45;3.80;;;12.10;99.90;;;;;;5065657;28;20154;-62
2024/02/02 06:44:05;;;;;;;6.68;3.40;;;12.10;99.90;;;;;;5063604;28;20121;-63
2024/02/02 06:46:32;;;;;;;4.57;3.30;;;12.00;99.90;;;;;;5061926;28;20104;-69
2024/02/02 06:48:59;;;;;;;5.22;3.63;;;12.00;99.90;;;;;;5059316;28;20138;-63
2024/02/02 06:51:25;;;;;;;7.90;3.85;;;12.00;99.90;;;;;;5064386;28;20103;-63
2024/02/02 06:53:52;;;;;;;6.05;3.60;;;12.00;99.90;;;;;;5061811;28;20081;-62
2024/02/02 06:56:46;;;;;;;7.63;4.30;;;12.10;99.90;;;;;;5057243;28;20445;-63
2024/02/02 06:59:13;;;;;;;9.23;3.60;;;12.10;99.90;;;;;;5060908;28;20077;-66
2024/02/02 07:01:39;;;;;;;12.32;6.35;;;12.10;99.90;;;;;;5063150;28;20099;-62
2024/02/02 07:04:09;;;;;;;9.50;5.25;;;12.10;99.90;;;;;;5062093;28;20069;-63
2024/02/02 07:06:35;;;;;;;9.43;5.32;;;12.20;99.90;;;;;;5063048;28;20512;-63
2024/02/02 07:09:29;;;;;;;8.05;3.95;;;12.20;99.90;;;;;;5063206;28;20083;-64
2024/02/02 07:11:59;;;;;;;11.13;3.10;;;12.30;99.90;;;;;;5059474;28;20093;-66
2024/02/02 07:14:40;;;;;;;7.97;3.42;;;12.40;99.90;;;;;;5061561;28;20097;-70
2024/02/02 07:17:32;;;;;;;8.52;3.33;;;12.50;99.90;;;;;;5063374;28;20540;-63
2024/02/02 07:20:00;;;;;;;7.72;2.70;;;12.60;99.90;;;;;;5063042;28;20073;-69
2024/02/02 07:22:29;;;;;;;5.38;2.70;;;12.60;99.90;;;;;;5060063;28;20080;-64
2024/02/02 07:24:56;;;;;;;6.57;2.45;;;12.70;99.90;;;;;;5060797;28;20160;-69
2024/02/02 07:27:52;;;;;;;4.90;2.15;;;12.80;99.90;;;;;;5061065;28;20103;-62
2024/02/02 07:30:44;;;;;;;6.70;2.90;;;12.90;99.90;;;;;;5057172;28;20138;-62
2024/02/02 07:33:23;;;;;;;9.07;3.25;;;12.80;99.90;;;;;;5057630;28;20493;-63
2024/02/02 07:35:50;;;;;;;6.20;3.13;;;12.80;99.90;;;;;;5061489;28;20087;-65
2024/02/02 07:38:48;;;;;;;8.70;3.17;;;12.70;99.90;;;;;;5068009;28;20072;-62
2024/02/02 07:41:15;;;;;;;;;;;12.60;99.90;;;;;;5061183;28;20637;-67
2024/02/02 07:43:41;;;;;;;8.85;3.38;;;12.60;99.90;;;;;;5063340;28;20003;-62
2024/02/02 07:46:08;;;;;;;8.02;3.42;;;12.50;99.90;;;;;;5056499;28;20105;-61
2024/02/02 07:48:36;;;;;;;6.15;3.20;;;12.40;99.90;;;;;;5061247;28;20077;-64
2024/02/02 07:51:06;;;;;;;10.60;3.60;;;12.30;99.90;;;;;;5063701;28;20107;-68
2024/02/02 07:53:32;;;;;;;7.75;3.17;;;12.20;99.90;;;;;;5061841;28;20118;-62
2024/02/02 07:55:59;;;;;;;6.88;3.60;;;12.10;99.90;;;;;;5061082;28;20069;-61
2024/02/02 07:58:25;;;;;;;9.52;3.70;;;12.10;99.90;;;;;;5060602;28;20498;-62
2024/02/02 08:00:53;;;;;;;7.70;3.45;;;12.10;99.90;;;;;;5061835;28;20100;-63
2024/02/02 08:03:19;;;;;;;5.28;3.28;;;12.00;99.90;;;;;;5061562;28;20100;-62
2024/02/02 08:05:47;;;;;;;8.43;3.55;;;11.90;99.90;;;;;;5060777;28;20155;-61
2024/02/02 08:08:13;;;;;;;6.75;3.83;;;11.90;99.90;;;;;;5061099;28;20624;-62
2024/02/02 08:10:43;;;;;;;8.00;3.40;;;11.80;99.90;;;;;;5063302;28;20105;-62
2024/02/02 08:13:11;;;;;;;5.63;2.75;;;11.80;99.90;;;;;;5062202;28;20097;-65
2024/02/02 08:15:38;;;;;;;6.57;2.55;;;11.90;99.90;;;;;;5062348;28;20088;-61
2024/02/02 08:18:06;;;;;;;4.70;2.17;;;11.80;99.90;;;;;;5062204;28;20076;-63
2024/02/02 08:20:33;;;;;;;4.38;1.30;;;11.90;99.90;;;;;;5064122;28;20080;-61
2024/02/02 08:23:00;;;;;;;3.72;1.25;;;12.00;99.90;;;;;;5059135;28;20169;-68
2024/02/02 08:25:27;;;;;;;7.18;1.10;;;12.30;99.90;;;;;;5059183;28;20150;-61
2024/02/02 08:27:53;;;;;;;3.30;1.20;;;12.30;99.90;;;;;;5061573;28;20093;-61
2024/02/02 08:30:20;;;;;;;3.00;1.10;;;12.50;99.90;;;;;;5062635;28;20168;-61
2024/02/02 08:32:51;;;;;;;4.63;1.50;;;12.60;99.90;;;;;;5061739;28;20081;-61
2024/02/02 08:35:22;;;;;;;7.80;1.10;;;12.80;99.90;;;;;;5062872;28;20073;-63
2024/02/02 08:38:00;;;;;;;4.22;1.20;;;12.80;99.90;;;;;;5060973;28;20200;-61
2024/02/02 08:40:35;;;;;;;3.65;1.00;;;12.80;99.90;;;;;;5063533;28;20073;-62
2024/02/02 08:43:02;;;;;;;2.80;1.00;;;12.90;99.90;;;;;;5062484;28;20107;-60
2024/02/02 08:45:56;;;;;;;2.75;0.85;;;13.00;99.90;;;;;;5064440;28;20615;-61
2024/02/02 08:48:37;;;;;;;2.72;0.80;;;13.10;99.90;;;;;;5066828;28;20081;-62
2024/02/02 08:51:22;;;;;;;2.75;0.80;;;13.20;99.90;;;;;;5066546;28;20122;-61
2024/02/02 08:53:49;;;;;;;2.22;1.00;;;13.30;99.90;;;;;;5062361;28;20073;-62
2024/02/02 08:56:16;;;;;;;3.58;1.00;;;13.40;99.90;;;;;;5063111;28;20084;-62
2024/02/02 08:58:43;;;;;;;6.40;1.17;;;13.30;99.90;;;;;;5059151;28;20077;-61
2024/02/02 09:01:24;;;;;;;3.28;1.10;;;13.40;99.90;;;;;;5064878;28;20128;-63
2024/02/02 09:03:53;;;;;;;2.47;1.00;;;13.40;99.90;;;;;;5065231;28;20088;-61
2024/02/02 09:06:44;;;;;;;5.40;1.17;;;13.40;99.90;;;;;;5065733;28;20195;-61
2024/02/02 09:09:14;;;;;;;6.03;1.25;;;13.40;99.90;;;;;;5060437;28;20085;-60
2024/02/02 09:11:46;;;;;;;2.60;0.80;;;13.40;99.90;;;;;;5062646;28;20077;-61
2024/02/02 09:14:17;;;;;;;3.88;0.90;;;13.40;99.90;;;;;;5065898;28;20065;-61
2024/02/02 09:16:51;;;;;;;2.80;1.20;;;13.50;99.90;;;;;;5066771;28;20085;-60
2024/02/02 09:22:42;;;;;;;4.70;1.40;;;13.50;99.90;;;;;;5062330;28;20111;-61
2024/02/02 09:25:10;;;;;;;3.00;1.02;;;13.50;99.90;;;;;;5062119;28;20518;-60
2024/02/02 09:27:38;;;;;;;5.63;1.42;;;13.50;99.90;;;;;;5065781;28;20131;-61
2024/02/02 09:30:19;;;;;;;3.42;0.93;;;13.50;99.90;;;;;;5066506;28;20118;-64
2024/02/02 09:32:45;;;;;;;4.88;1.23;;;13.50;99.90;;;;;;5065308;28;20083;-64
2024/02/02 09:35:34;;;;;;;2.30;0.88;;;13.50;99.90;;;;;;5071105;28;20073;-61
2024/02/02 09:38:00;;;;;;;4.75;1.10;;;13.50;99.90;;;;;;5063187;28;20089;-62
2024/02/02 09:40:45;;;;;;;4.38;1.10;;;13.40;99.90;;;;;;5064717;28;20078;-61
2024/02/02 09:43:19;;;;;;;4.90;1.20;;;13.40;99.90;;;;;;5064684;28;20074;-61
2024/02/02 09:46:20;;;;;;;3.20;1.00;;;13.40;99.90;;;;;;5065812;28;20684;-62
2024/02/02 09:48:59;;;;;;;8.35;1.08;;;13.50;99.90;;;;;;5063230;28;20157;-62
2024/02/02 09:51:40;;;;;;;1.70;0.75;;;13.60;99.90;;;;;;5062543;28;20088;-61
2024/02/02 09:54:20;;;;;;;3.50;1.25;;;13.70;99.90;;;;;;5063481;28;20635;-62
2024/02/02 09:57:06;;;;;;;1.70;0.70;;;13.80;99.90;;;;;;5060789;28;20084;-60
2024/02/02 09:59:44;;;;;;;3.63;0.68;;;13.90;99.90;;;;;;5066183;28;20957;-64
2024/02/02 10:02:20;;;;;;;1.17;0.40;;;14.00;99.90;;;;;;5062365;28;20149;-69
2024/02/02 10:05:20;;;;;;;0.13;0.13;;;14.00;99.90;;;;;;5061476;28;20083;-67
2024/02/02 10:08:02;;;;;;;1.77;0.30;;;14.00;99.90;;;;;;5060840;28;20628;-67
2024/02/02 10:11:12;;;;;;;0.88;0.30;;;14.00;99.90;;;;;;5062891;28;20172;-70
2024/02/02 10:14:17;;;;;;;7.18;3.60;;;14.00;99.90;;;;;;5060687;28;20091;-67
2024/02/02 10:17:07;;;;;;;3.63;2.13;;;14.10;99.90;;;;;;5059384;28;20084;-65
2024/02/02 10:19:37;;;;;;;1.92;0.60;;;14.10;99.90;;;;;;5059399;28;20139;-70
2024/02/02 10:22:38;;;;;;;3.45;0.68;;;14.00;99.90;;;;;;5058816;28;20513;-62
2024/02/02 10:25:33;;;;;;;3.95;0.50;;;14.00;99.90;;;;;;5055288;28;20080;-63
2024/02/02 10:28:36;;;;;;;4.95;0.60;;;14.00;99.90;;;;;;5059241;28;20183;-65
2024/02/02 10:31:51;;;;;;;1.85;1.00;;;13.90;99.90;;;;;;5064373;28;20552;-66
2024/02/02 10:34:50;;;;;;;2.28;0.90;;;14.00;99.90;;;;;;5059084;28;20089;-62
2024/02/02 10:37:36;;;;;;;3.78;0.60;;;14.00;99.90;;;;;;5058572;28;20105;-68
2024/02/02 10:40:10;;;;;;;2.22;0.68;;;13.90;99.90;;;;;;5060215;28;20076;-63
2024/02/02 10:43:00;;;;;;;1.67;0.95;;;13.90;99.90;;;;;;5058266;28;20077;-65
2024/02/02 10:45:45;;;;;;;1.30;0.65;;;13.90;99.90;;;;;;5057969;28;20121;-64
2024/02/02 10:48:24;;;;;;;3.55;3.22;;;13.90;99.90;;;;;;5059893;28;20226;-67
2024/02/02 10:51:02;;;;;;;1.20;0.57;;;13.80;99.90;;;;;;5059648;28;20104;-65
2024/02/02 10:53:33;;;;;;;4.78;0.70;;;13.80;99.90;;;;;;5061509;28;20065;-67
2024/02/02 10:56:05;;;;;;;2.60;0.73;;;13.80;99.90;;;;;;5057966;28;20161;-68
2024/02/02 10:58:43;;;;;;;1.73;0.50;;;13.70;99.90;;;;;;5058328;28;20533;-68
2024/02/02 11:01:35;;;;;;;1.52;0.50;;;13.70;99.90;;;;;;5058875;28;20130;-67
2024/02/02 11:04:05;;;;;;;2.92;0.77;;;13.70;99.90;;;;;;5057410;28;20452;-68
2024/02/02 11:07:00;;;;;;;1.58;0.57;;;13.60;99.90;;;;;;5060000;28;20097;-67
2024/02/02 11:09:49;;;;;;;2.03;0.60;;;13.60;99.90;;;;;;5058582;28;20077;-69
2024/02/02 11:12:23;;;;;;;6.30;0.60;;;13.50;99.90;;;;;;5057590;28;20560;-68
2024/02/02 11:15:01;;;;;;;2.50;1.00;;;13.50;99.90;;;;;;5058561;28;20093;-65
2024/02/02 11:17:34;;;;;;;4.93;1.30;;;13.60;99.90;;;;;;5061943;28;20153;-68
2024/02/02 11:20:12;;;;;;;4.07;1.10;;;13.50;99.90;;;;;;5061240;28;20202;-67
2024/02/02 11:22:59;;;;;;;1.88;0.70;;;13.50;99.90;;;;;;5061940;28;20444;-69
2024/02/02 11:25:49;;;;;;;1.48;0.80;;;13.50;99.90;;;;;;5060299;28;20077;-67
2024/02/02 11:28:25;;;;;;;3.83;0.82;;;13.50;99.90;;;;;;5057741;28;20476;-68
2024/02/02 11:31:24;;;;;;;6.00;1.00;;;13.50;99.90;;;;;;5058704;28;20099;-67
2024/02/02 11:33:56;;;;;;;3.55;1.05;;;13.40;99.90;;;;;;5060320;28;20351;-67
2024/02/02 11:36:53;;;;;;;3.08;1.00;;;13.40;99.90;;;;;;5058867;28;20073;-66
2024/02/02 11:39:53;;;;;;;4.13;1.15;;;13.30;99.90;;;;;;5056700;28;20080;-66
2024/02/02 11:42:23;;;;;;;3.35;1.10;;;13.30;99.90;;;;;;5059435;28;20080;-67
2024/02/02 11:44:53;;;;;;;2.92;1.15;;;13.20;99.90;;;;;;5058768;28;20203;-65
2024/02/02 11:47:19;;;;;;;3.70;0.80;;;13.30;99.90;;;;;;5058460;28;20105;-66
2024/02/02 11:49:50;;;;;;;6.05;1.20;;;13.30;99.90;;;;;;5058643;28;20127;-65
2024/02/02 11:52:27;;;;;;;3.42;1.17;;;13.20;99.90;;;;;;5060053;28;20088;-65
2024/02/02 11:55:32;;;;;;;6.72;0.98;;;13.20;99.90;;;;;;5058435;28;20084;-65
2024/02/02 11:58:05;;;;;;;5.60;1.70;;;13.20;99.90;;;;;;5051303;28;20116;-65
2024/02/02 12:00:44;;;;;;;7.10;1.50;;;13.10;99.90;;;;;;5060572;28;20069;-66
2024/02/02 12:03:27;;;;;;;4.80;1.50;;;13.10;99.90;;;;;;5056509;28;20089;-66
2024/02/02 12:06:14;;;;;;;6.72;1.10;;;13.10;99.90;;;;;;5058982;28;20191;-65
2024/02/02 12:08:50;;;;;;;3.72;1.50;;;13.00;99.90;;;;;;5055403;28;20626;-65
2024/02/02 12:11:21;;;;;;;5.30;1.70;;;12.90;99.90;;;;;;5058237;28;20073;-65
2024/02/02 12:13:52;;;;;;;3.90;1.10;;;12.90;99.90;;;;;;5058475;28;20118;-65
2024/02/02 12:16:19;;;;;;;5.53;1.48;;;12.80;99.90;;;;;;5058800;28;20084;-66
2024/02/02 12:18:45;;;;;;;5.47;1.60;;;12.70;99.90;;;;;;5059035;28;20578;-65
2024/02/02 12:21:15;;;;;;;5.43;1.42;;;12.70;99.90;;;;;;5057561;28;20092;-65
2024/02/02 12:23:46;;;;;;;7.72;1.48;;;12.70;99.90;;;;;;5058528;28;20462;-66
2024/02/02 12:26:14;;;;;;;5.57;1.55;;;12.60;99.90;;;;;;5056345;28;20223;-65
2024/02/02 12:28:41;;;;;;;6.65;1.50;;;12.60;99.90;;;;;;5057377;28;20074;-65
2024/02/02 12:31:08;;;;;;;7.05;1.60;;;12.60;99.90;;;;;;5057157;28;20592;-66
2024/02/02 12:33:34;;;;;;;7.30;1.38;;;12.60;99.90;;;;;;5061632;28;20274;-66
2024/02/02 12:36:01;;;;;;;4.32;1.13;;;12.50;99.90;;;;;;5057936;28;20547;-66
2024/02/02 12:38:27;;;;;;;4.93;1.35;;;12.50;99.90;;;;;;5060000;28;20073;-66
2024/02/02 12:40:56;;;;;;;6.95;1.65;;;12.50;99.90;;;;;;5059576;28;20068;-65
2024/02/02 12:43:25;;;;;;;5.85;1.55;;;12.50;99.90;;;;;;5053449;28;20073;-66
2024/02/02 12:45:55;;;;;;;5.93;1.55;;;12.40;99.90;;;;;;5056950;28;20206;-65
2024/02/02 12:48:21;;;;;;;6.80;1.95;;;12.40;99.90;;;;;;5059604;28;20131;-66
2024/02/02 12:50:51;;;;;;;7.72;1.77;;;12.50;99.90;;;;;;5061626;28;20073;-66
2024/02/02 12:53:19;;;;;;;9.20;2.13;;;12.60;99.90;;;;;;5064908;28;20108;-66
2024/02/02 12:55:46;;;;;;;11.15;2.05;;;12.70;99.90;;;;;;5067377;28;20077;-66
2024/02/02 12:58:16;;;;;;;11.40;2.05;;;12.70;99.90;;;;;;5063117;28;20466;-67
2024/02/02 13:00:42;;;;;;;9.50;2.05;;;12.60;99.90;;;;;;5061791;28;20164;-67
2024/02/02 13:03:12;;;;;;;10.82;2.80;;;12.60;99.90;;;;;;5060312;28;20508;-66
2024/02/02 13:05:39;;;;;;;6.93;2.35;;;12.50;99.90;;;;;;5059570;28;20519;-65